Time;durP1;ratioP1;P1;durP2;ratioP2;P2;SDS_P1;SDS_P2;PMS_P1;PMS_P2;Temp;Humidity;BMP_temperature;BMP_pressure;BME280_temperature;BME280_humidity;BME280_pressure;Samples;Min_cycle;Max_cycle;Signal;HPM_P1;HPM_P2
2023/10/01 00:00:00;;;;;;;9.20;5.27;;;10.40;99.90;;;;;;467106;253;28128;-70
2023/10/01 00:02:01;;;;;;;9.13;4.63;;;10.40;99.90;;;;;;467108;254;27959;-70
2023/10/01 00:04:06;;;;;;;6.23;4.47;;;10.40;99.90;;;;;;467085;250;27976;-71
2023/10/01 00:06:06;;;;;;;11.83;6.13;;;10.40;99.90;;;;;;467108;254;28066;-72
2023/10/01 00:08:08;;;;;;;8.30;4.87;;;10.40;99.90;;;;;;467140;253;28472;-70
2023/10/01 00:10:12;;;;;;;9.23;4.60;;;10.40;99.90;;;;;;467120;254;28571;-71
2023/10/01 00:12:13;;;;;;;11.07;5.50;;;10.30;99.90;;;;;;467148;254;28345;-71
2023/10/01 00:14:16;;;;;;;7.60;4.70;;;10.30;99.90;;;;;;467178;253;28177;-70
2023/10/01 00:16:15;;;;;;;8.00;4.70;;;10.40;99.90;;;;;;467067;253;28034;-70
2023/10/01 00:18:16;;;;;;;7.43;4.83;;;10.40;99.90;;;;;;467134;249;27834;-71
2023/10/01 00:20:20;;;;;;;9.83;5.50;;;10.40;99.90;;;;;;467133;254;27856;-70
2023/10/01 00:22:19;;;;;;;9.93;4.77;;;10.40;99.90;;;;;;467025;250;27983;-70
2023/10/01 00:24:20;;;;;;;8.70;4.60;;;10.40;99.90;;;;;;467171;254;27806;-71
2023/10/01 00:26:21;;;;;;;9.20;4.90;;;10.40;99.90;;;;;;467183;253;28122;-70
2023/10/01 00:28:23;;;;;;;8.63;5.10;;;10.40;99.90;;;;;;467074;254;28009;-71
2023/10/01 00:30:24;;;;;;;11.20;5.47;;;10.40;99.90;;;;;;467103;253;27938;-70
2023/10/01 00:32:28;;;;;;;6.87;4.70;;;10.40;99.90;;;;;;467110;249;28477;-70
2023/10/01 00:34:26;;;;;;;7.00;5.00;;;10.40;99.90;;;;;;467016;254;28449;-72
2023/10/01 00:36:29;;;;;;;15.80;5.23;;;10.40;99.90;;;;;;467153;249;28442;-71
2023/10/01 00:38:29;;;;;;;8.80;4.93;;;10.40;99.90;;;;;;467128;254;28080;-70
2023/10/01 00:40:30;;;;;;;7.43;4.80;;;10.40;99.90;;;;;;467157;253;27922;-70
2023/10/01 00:42:31;;;;;;;9.50;4.83;;;10.30;99.90;;;;;;467161;250;27971;-70
2023/10/01 00:44:36;;;;;;;6.60;4.80;;;10.40;99.90;;;;;;467139;253;27979;-71
2023/10/01 00:46:37;;;;;;;7.83;4.60;;;10.40;99.90;;;;;;467141;253;28317;-73
2023/10/01 00:48:38;;;;;;;10.23;6.00;;;10.30;99.90;;;;;;467127;253;28068;-70
2023/10/01 00:50:39;;;;;;;10.80;5.37;;;10.30;99.90;;;;;;467136;253;27980;-70
2023/10/01 00:52:41;;;;;;;9.13;5.07;;;10.30;99.90;;;;;;467123;253;27695;-70
2023/10/01 00:54:43;;;;;;;6.80;4.93;;;10.20;99.90;;;;;;467161;253;27961;-70
2023/10/01 00:56:44;;;;;;;9.37;5.77;;;10.20;99.90;;;;;;467043;249;27880;-72
2023/10/01 00:58:45;;;;;;;9.70;5.00;;;10.20;99.90;;;;;;467047;249;28025;-70
2023/10/01 01:00:45;;;;;;;8.83;5.33;;;10.10;99.90;;;;;;467145;254;27735;-70
2023/10/01 01:05:19;;;;;;;8.40;5.20;;;10.20;99.90;;;;;;467126;253;27954;-70
2023/10/01 01:07:19;;;;;;;6.80;4.70;;;10.30;99.90;;;;;;466308;254;27953;-71
2023/10/01 01:09:11;;;;;;;10.17;5.40;;;10.20;99.90;;;;;;466441;254;28192;-72
2023/10/01 01:11:10;;;;;;;12.17;5.20;;;10.20;99.90;;;;;;467077;254;28060;-70
2023/10/01 01:13:16;;;;;;;7.33;4.77;;;10.20;99.90;;;;;;467087;253;28017;-70
2023/10/01 01:15:13;;;;;;;7.00;4.70;;;10.20;99.90;;;;;;466802;254;27779;-70
2023/10/01 01:17:14;;;;;;;12.57;5.47;;;10.20;99.90;;;;;;467152;253;28080;-70
2023/10/01 01:19:15;;;;;;;5.67;4.20;;;10.10;99.90;;;;;;467159;253;27735;-72
2023/10/01 01:21:17;;;;;;;7.53;4.60;;;10.10;99.90;;;;;;467185;253;28055;-70
2023/10/01 01:23:18;;;;;;;7.13;4.63;;;10.00;99.90;;;;;;467127;253;28297;-70
2023/10/01 01:25:25;;;;;;;6.73;4.80;;;10.00;99.90;;;;;;467059;253;28890;-73
2023/10/01 01:27:23;;;;;;;6.27;4.07;;;9.90;99.90;;;;;;466941;254;28196;-71
2023/10/01 01:29:34;;;;;;;8.17;5.30;;;9.90;99.90;;;;;;467154;253;28152;-70
2023/10/01 01:31:45;;;;;;;9.63;4.70;;;9.90;99.90;;;;;;466970;254;28683;-70
2023/10/01 01:33:40;;;;;;;8.63;5.17;;;9.90;99.90;;;;;;466286;254;28261;-70
2023/10/01 01:35:35;;;;;;;7.87;5.10;;;9.90;99.90;;;;;;466740;254;27806;-71
2023/10/01 01:37:48;;;;;;;7.53;4.73;;;9.90;99.90;;;;;;467124;249;27954;-71
2023/10/01 01:39:49;;;;;;;9.37;5.60;;;9.90;99.90;;;;;;467159;253;27928;-70
2023/10/01 01:41:51;;;;;;;10.83;5.00;;;10.00;99.90;;;;;;467156;253;27985;-70
2023/10/01 01:43:52;;;;;;;7.53;4.90;;;9.90;99.90;;;;;;467095;254;28169;-71
2023/10/01 01:45:56;;;;;;;6.57;4.70;;;9.90;99.90;;;;;;467110;254;27651;-70
2023/10/01 01:47:54;;;;;;;11.77;5.40;;;9.90;99.90;;;;;;466809;249;27794;-70
2023/10/01 01:50:07;;;;;;;7.27;5.30;;;9.90;99.90;;;;;;467120;249;28277;-70
2023/10/01 01:52:03;;;;;;;8.67;5.43;;;9.90;99.90;;;;;;466443;254;28347;-71
2023/10/01 01:54:03;;;;;;;9.17;5.40;;;9.90;99.90;;;;;;466937;254;28011;-70
2023/10/01 01:56:08;;;;;;;11.03;5.63;;;9.90;99.90;;;;;;466982;254;28552;-70
2023/10/01 01:58:10;;;;;;;10.23;5.03;;;9.90;99.90;;;;;;466960;254;27888;-70
2023/10/01 02:00:13;;;;;;;8.47;5.30;;;9.90;99.90;;;;;;467088;254;28493;-71
2023/10/01 02:02:12;;;;;;;7.07;4.80;;;9.90;99.90;;;;;;466979;254;28590;-72
2023/10/01 02:04:13;;;;;;;7.90;5.83;;;9.90;99.90;;;;;;467124;253;28577;-70
2023/10/01 02:06:14;;;;;;;9.30;5.00;;;10.00;99.90;;;;;;467143;253;28399;-71
2023/10/01 02:08:24;;;;;;;8.10;4.97;;;10.00;99.90;;;;;;467128;253;28273;-70
2023/10/01 02:10:26;;;;;;;7.70;4.50;;;10.10;99.90;;;;;;467163;253;28193;-70
2023/10/01 02:12:30;;;;;;;12.70;5.53;;;10.10;99.90;;;;;;467171;254;28405;-70
2023/10/01 02:14:31;;;;;;;9.33;5.83;;;10.10;99.90;;;;;;467040;254;28476;-71
2023/10/01 02:16:40;;;;;;;9.53;6.03;;;10.20;99.90;;;;;;467179;253;27958;-70
2023/10/01 02:18:41;;;;;;;7.17;5.37;;;10.20;99.90;;;;;;467113;253;28324;-70
2023/10/01 02:20:43;;;;;;;8.60;5.57;;;10.20;99.90;;;;;;467090;254;28008;-70
2023/10/01 02:22:43;;;;;;;10.10;5.40;;;10.10;99.90;;;;;;466984;254;27977;-70
2023/10/01 02:26:47;;;;;;;7.53;5.30;;;10.10;99.90;;;;;;467159;253;28135;-70
2023/10/01 02:28:50;;;;;;;9.57;5.57;;;10.00;99.90;;;;;;467196;253;27992;-71
2023/10/01 02:30:56;;;;;;;8.80;6.30;;;10.00;99.90;;;;;;467124;253;27969;-72
2023/10/01 02:33:54;;;;;;;6.97;4.83;;;10.00;99.90;;;;;;466771;253;27948;-70
2023/10/01 02:34:58;;;;;;;10.80;5.60;;;10.00;99.90;;;;;;463734;254;27958;-71
2023/10/01 02:37:05;;;;;;;9.00;5.47;;;10.00;99.90;;;;;;467140;253;28065;-70
2023/10/01 02:39:11;;;;;;;8.10;5.17;;;10.10;99.90;;;;;;466780;254;27776;-70
2023/10/01 02:41:02;;;;;;;6.80;4.93;;;10.00;99.90;;;;;;466502;253;28073;-71
2023/10/01 02:43:06;;;;;;;8.33;5.53;;;10.10;99.90;;;;;;467155;253;28630;-70
2023/10/01 02:45:30;;;;;;;8.80;5.63;;;10.00;99.90;;;;;;467016;250;28672;-70
2023/10/01 02:47:16;;;;;;;10.67;5.47;;;10.00;99.90;;;;;;465799;254;29271;-71
2023/10/01 02:49:12;;;;;;;8.93;5.50;;;9.90;99.90;;;;;;466787;253;28051;-71
2023/10/01 02:51:14;;;;;;;8.20;5.50;;;9.90;99.90;;;;;;467081;254;27828;-70
2023/10/01 02:53:20;;;;;;;11.53;5.73;;;9.90;99.90;;;;;;467159;253;28490;-71
2023/10/01 02:55:26;;;;;;;10.30;5.30;;;9.90;99.90;;;;;;466884;254;28246;-71
2023/10/01 02:57:24;;;;;;;8.83;5.40;;;9.80;99.90;;;;;;466768;254;28473;-71
2023/10/01 02:59:25;;;;;;;10.70;6.43;;;9.80;99.90;;;;;;467165;253;27946;-70
2023/10/01 03:01:29;;;;;;;12.00;5.33;;;9.80;99.90;;;;;;467144;253;27930;-70
2023/10/01 03:03:38;;;;;;;10.60;6.10;;;9.80;99.90;;;;;;466983;254;27968;-70
2023/10/01 03:05:36;;;;;;;8.73;5.93;;;9.80;99.90;;;;;;466926;254;28143;-72
2023/10/01 03:07:39;;;;;;;9.33;5.90;;;9.80;99.90;;;;;;467039;254;28009;-70
2023/10/01 03:09:40;;;;;;;7.30;4.87;;;9.70;99.90;;;;;;467172;253;27988;-70
2023/10/01 03:11:44;;;;;;;8.90;5.50;;;9.80;99.90;;;;;;467138;254;28231;-71
2023/10/01 03:13:46;;;;;;;10.80;6.30;;;9.80;99.90;;;;;;467068;253;27981;-70
2023/10/01 03:15:44;;;;;;;6.33;4.53;;;9.80;99.90;;;;;;466974;254;27810;-71
2023/10/01 03:21:07;;;;;;;7.57;4.83;;;9.80;99.90;;;;;;467176;254;27860;-70
2023/10/01 03:22:24;;;;;;;10.73;5.30;;;9.80;99.90;;;;;;465768;253;28447;-73
2023/10/01 03:24:27;;;;;;;6.60;4.87;;;9.80;99.90;;;;;;467173;253;27964;-71
2023/10/01 03:26:26;;;;;;;11.00;5.37;;;9.80;99.90;;;;;;467075;254;28150;-70
2023/10/01 03:28:28;;;;;;;8.33;5.40;;;9.80;99.90;;;;;;467142;254;27979;-71
2023/10/01 03:30:33;;;;;;;10.80;5.90;;;9.80;99.90;;;;;;467176;253;27841;-72
2023/10/01 03:32:32;;;;;;;8.13;5.00;;;9.80;99.90;;;;;;466783;254;28000;-70
2023/10/01 03:34:43;;;;;;;6.67;4.77;;;9.80;99.90;;;;;;467045;249;27972;-71
2023/10/01 03:36:42;;;;;;;9.50;5.00;;;9.80;99.90;;;;;;466398;254;28036;-70
2023/10/01 03:38:35;;;;;;;8.70;5.30;;;9.80;99.90;;;;;;466520;254;28094;-70
2023/10/01 03:40:48;;;;;;;7.57;5.57;;;9.80;99.90;;;;;;467122;254;27853;-72
2023/10/01 03:42:37;;;;;;;10.63;5.97;;;9.80;99.90;;;;;;466311;254;27942;-70
2023/10/01 03:45:00;;;;;;;10.20;5.50;;;9.90;99.90;;;;;;467146;253;28061;-70
2023/10/01 03:46:46;;;;;;;9.10;4.77;;;9.80;99.90;;;;;;465095;254;28235;-70
2023/10/01 03:49:01;;;;;;;6.97;4.60;;;9.80;99.90;;;;;;467031;254;27991;-71
2023/10/01 03:51:03;;;;;;;6.90;4.80;;;9.80;99.90;;;;;;467150;254;28459;-71
2023/10/01 03:53:11;;;;;;;5.93;4.43;;;9.70;99.90;;;;;;467044;254;29273;-70
2023/10/01 03:55:25;;;;;;;9.87;5.97;;;9.70;99.90;;;;;;466652;254;27655;-70
2023/10/01 03:57:05;;;;;;;8.03;5.30;;;9.70;99.90;;;;;;465813;254;27934;-71
2023/10/01 03:59:15;;;;;;;8.60;5.07;;;9.70;99.90;;;;;;467175;253;27926;-70
2023/10/01 04:01:26;;;;;;;8.27;5.67;;;9.70;99.90;;;;;;466603;253;27876;-71
2023/10/01 04:03:21;;;;;;;8.27;5.27;;;9.60;99.90;;;;;;466583;254;28422;-70
2023/10/01 04:05:22;;;;;;;7.10;5.40;;;9.70;99.90;;;;;;467059;254;28079;-72
2023/10/01 04:07:26;;;;;;;8.60;5.90;;;9.70;99.90;;;;;;467169;253;28019;-70
2023/10/01 04:09:26;;;;;;;6.70;4.83;;;9.70;99.90;;;;;;467038;254;27939;-70
2023/10/01 04:11:49;;;;;;;7.33;4.80;;;9.80;99.90;;;;;;467138;253;28070;-71
2023/10/01 04:13:28;;;;;;;8.50;5.60;;;9.80;99.90;;;;;;465766;254;27794;-70
2023/10/01 04:15:31;;;;;;;9.13;5.13;;;9.80;99.90;;;;;;467155;254;27850;-70
2023/10/01 04:17:36;;;;;;;7.87;4.83;;;9.80;99.90;;;;;;467144;253;28012;-70
2023/10/01 04:19:36;;;;;;;8.10;5.00;;;9.80;99.90;;;;;;466810;254;27852;-71
2023/10/01 04:21:35;;;;;;;6.67;5.07;;;9.80;99.90;;;;;;466956;254;27967;-70
2023/10/01 04:23:40;;;;;;;8.37;5.30;;;9.80;99.90;;;;;;467183;253;28229;-71
2023/10/01 04:25:38;;;;;;;10.17;5.80;;;9.80;99.90;;;;;;466852;253;28393;-71
2023/10/01 04:27:41;;;;;;;8.73;5.23;;;9.80;99.90;;;;;;467114;253;28318;-71
2023/10/01 04:29:44;;;;;;;9.03;5.23;;;9.80;99.90;;;;;;467030;254;28550;-71
2023/10/01 04:32:01;;;;;;;5.73;4.90;;;9.80;99.90;;;;;;467063;253;28388;-70
2023/10/01 04:33:45;;;;;;;8.30;5.43;;;9.80;99.90;;;;;;465261;254;28465;-70
2023/10/01 04:35:55;;;;;;;9.70;5.33;;;9.70;99.90;;;;;;467143;253;28442;-71
2023/10/01 04:37:53;;;;;;;7.53;5.03;;;9.70;99.90;;;;;;466999;254;28046;-71
2023/10/01 04:39:55;;;;;;;10.17;5.33;;;9.70;99.90;;;;;;467172;253;27677;-70
2023/10/01 04:41:59;;;;;;;7.27;5.10;;;9.70;99.90;;;;;;467141;253;27881;-72
2023/10/01 04:44:00;;;;;;;7.60;4.97;;;9.60;99.90;;;;;;467013;254;28087;-72
2023/10/01 04:46:00;;;;;;;8.03;5.30;;;9.60;99.90;;;;;;467004;254;27835;-71
2023/10/01 04:48:02;;;;;;;8.83;5.60;;;9.60;99.90;;;;;;467048;249;27729;-72
2023/10/01 04:50:01;;;;;;;6.83;4.80;;;9.60;99.90;;;;;;467046;253;27768;-71
2023/10/01 04:52:10;;;;;;;9.40;4.83;;;9.50;99.90;;;;;;467150;253;27724;-70
2023/10/01 04:54:06;;;;;;;5.10;4.37;;;9.50;99.90;;;;;;466685;254;28526;-70
2023/10/01 04:56:10;;;;;;;7.60;5.00;;;9.50;99.90;;;;;;466965;254;28349;-71
2023/10/01 04:58:06;;;;;;;7.37;4.60;;;9.60;99.90;;;;;;466617;254;28500;-71
2023/10/01 05:00:10;;;;;;;7.33;5.33;;;9.60;99.90;;;;;;467149;253;28482;-71
2023/10/01 05:02:21;;;;;;;6.93;4.93;;;9.60;99.90;;;;;;466958;254;28532;-72
2023/10/01 05:04:14;;;;;;;6.57;5.20;;;9.60;99.90;;;;;;466302;254;28186;-71
2023/10/01 05:06:14;;;;;;;8.40;5.90;;;9.60;99.90;;;;;;466757;254;28045;-71
2023/10/01 05:08:15;;;;;;;7.07;5.30;;;9.60;99.90;;;;;;467138;253;28544;-71
2023/10/01 05:10:17;;;;;;;6.20;4.30;;;9.60;99.90;;;;;;467146;253;28285;-72
2023/10/01 05:12:30;;;;;;;9.70;5.90;;;9.50;99.90;;;;;;467134;253;28215;-71
2023/10/01 05:14:19;;;;;;;11.00;5.73;;;9.60;99.90;;;;;;466319;254;28077;-71
2023/10/01 05:16:26;;;;;;;10.50;4.97;;;9.60;99.90;;;;;;467167;254;27978;-70
2023/10/01 05:18:21;;;;;;;7.50;4.83;;;9.60;99.90;;;;;;466772;254;28164;-71
2023/10/01 05:20:25;;;;;;;8.30;5.03;;;9.60;99.90;;;;;;467161;253;27955;-72
2023/10/01 05:22:24;;;;;;;7.77;5.10;;;9.60;99.90;;;;;;467019;254;28064;-71
2023/10/01 05:24:34;;;;;;;8.73;5.20;;;9.60;99.90;;;;;;467129;253;27621;-71
2023/10/01 05:26:35;;;;;;;8.47;5.40;;;9.60;99.90;;;;;;467047;254;28017;-72
2023/10/01 05:28:36;;;;;;;8.87;5.17;;;9.50;99.90;;;;;;467040;252;28082;-70
2023/10/01 05:30:38;;;;;;;9.60;5.30;;;9.50;99.90;;;;;;467048;254;27767;-71
2023/10/01 05:32:51;;;;;;;8.60;4.87;;;9.50;99.90;;;;;;466981;254;27549;-70
2023/10/01 05:34:46;;;;;;;7.30;5.13;;;9.50;99.90;;;;;;466234;254;28181;-71
2023/10/01 05:36:42;;;;;;;7.60;5.40;;;9.50;99.90;;;;;;466727;254;28604;-70
2023/10/01 05:38:43;;;;;;;10.00;5.60;;;9.50;99.90;;;;;;467133;253;28573;-72
2023/10/01 05:40:44;;;;;;;11.43;5.47;;;9.60;99.90;;;;;;467152;253;28305;-70
2023/10/01 05:42:47;;;;;;;9.77;5.97;;;9.60;99.90;;;;;;467158;253;28177;-71
2023/10/01 05:44:47;;;;;;;8.27;5.60;;;9.60;99.90;;;;;;467105;253;27856;-72
2023/10/01 05:46:48;;;;;;;6.70;5.00;;;9.60;99.90;;;;;;467141;253;27795;-71
2023/10/01 05:48:55;;;;;;;10.60;5.40;;;9.50;99.90;;;;;;467136;254;28048;-71
2023/10/01 05:50:57;;;;;;;8.90;5.47;;;9.60;99.90;;;;;;466816;254;28184;-71
2023/10/01 05:52:55;;;;;;;9.07;5.43;;;9.50;99.90;;;;;;466923;254;27922;-70
2023/10/01 05:54:55;;;;;;;9.67;5.90;;;9.60;99.90;;;;;;467087;253;28017;-71
2023/10/01 05:56:57;;;;;;;9.33;5.40;;;9.60;99.90;;;;;;467157;253;27968;-72
2023/10/01 05:58:59;;;;;;;6.97;4.57;;;9.60;99.90;;;;;;467160;253;28011;-71
2023/10/01 06:01:14;;;;;;;9.50;5.07;;;9.60;99.90;;;;;;467110;254;28089;-72
2023/10/01 06:03:00;;;;;;;8.60;5.27;;;9.70;99.90;;;;;;465795;254;28178;-71
2023/10/01 06:05:22;;;;;;;8.30;4.90;;;9.70;99.90;;;;;;467136;253;28061;-71
2023/10/01 06:07:03;;;;;;;10.90;5.10;;;9.70;99.90;;;;;;465821;254;27888;-72
2023/10/01 06:09:09;;;;;;;7.17;5.00;;;9.70;99.90;;;;;;467145;253;28182;-70
2023/10/01 06:11:06;;;;;;;8.13;5.33;;;9.70;99.90;;;;;;466875;254;27869;-71
2023/10/01 06:13:07;;;;;;;10.10;6.43;;;9.70;99.90;;;;;;467154;254;27989;-70
2023/10/01 06:15:11;;;;;;;8.87;4.80;;;9.70;99.90;;;;;;467176;253;28312;-70
2023/10/01 06:17:10;;;;;;;9.20;5.63;;;9.70;99.90;;;;;;466963;254;28562;-71
2023/10/01 06:19:11;;;;;;;7.93;5.10;;;9.80;99.90;;;;;;467100;254;28425;-70
2023/10/01 06:21:12;;;;;;;9.10;5.60;;;9.80;99.90;;;;;;467149;253;28545;-71
2023/10/01 06:23:13;;;;;;;6.83;4.80;;;9.80;99.90;;;;;;467134;249;28931;-70
2023/10/01 06:25:14;;;;;;;10.00;5.37;;;9.80;99.90;;;;;;467184;254;27942;-71
2023/10/01 06:27:18;;;;;;;8.27;5.73;;;9.90;99.90;;;;;;467164;253;27992;-72
2023/10/01 06:29:19;;;;;;;10.33;5.60;;;9.90;99.90;;;;;;467165;253;27937;-71
2023/10/01 06:31:21;;;;;;;9.67;6.20;;;10.00;99.90;;;;;;467129;253;28121;-71
2023/10/01 06:33:25;;;;;;;7.30;5.13;;;10.00;99.90;;;;;;467133;253;28083;-71
2023/10/01 06:35:26;;;;;;;6.77;4.50;;;10.00;99.90;;;;;;467157;253;27972;-71
2023/10/01 06:37:45;;;;;;;6.70;4.87;;;10.00;99.90;;;;;;467178;254;28131;-72
2023/10/01 06:39:30;;;;;;;7.23;5.10;;;10.10;99.90;;;;;;466035;254;27933;-71
2023/10/01 06:41:31;;;;;;;11.23;5.80;;;10.10;99.90;;;;;;467146;253;28354;-71
2023/10/01 06:43:32;;;;;;;7.63;5.53;;;10.20;99.90;;;;;;467123;254;28047;-71
2023/10/01 06:45:44;;;;;;;9.87;5.57;;;10.20;99.90;;;;;;467110;253;27971;-71
2023/10/01 06:47:43;;;;;;;8.90;5.47;;;10.20;99.90;;;;;;467065;254;28053;-71
2023/10/01 06:49:57;;;;;;;8.23;5.23;;;10.20;99.90;;;;;;467174;249;27976;-72
2023/10/01 06:51:45;;;;;;;8.60;4.50;;;10.30;99.90;;;;;;466290;254;28579;-70
2023/10/01 06:53:47;;;;;;;7.73;4.80;;;10.40;99.90;;;;;;467169;253;28413;-71
2023/10/01 06:55:48;;;;;;;7.90;5.17;;;10.40;99.90;;;;;;467157;253;28481;-71
2023/10/01 06:57:50;;;;;;;7.50;4.43;;;10.50;99.90;;;;;;467139;253;27945;-71
2023/10/01 06:59:50;;;;;;;8.53;5.63;;;10.50;99.90;;;;;;467102;254;27996;-71
2023/10/01 07:01:56;;;;;;;9.77;5.50;;;10.60;99.90;;;;;;467147;249;27946;-71
2023/10/01 07:03:54;;;;;;;7.83;5.00;;;10.60;99.90;;;;;;466876;254;27982;-71
2023/10/01 07:05:56;;;;;;;6.50;5.07;;;10.60;99.90;;;;;;467097;253;28039;-72
2023/10/01 07:07:55;;;;;;;7.83;5.23;;;10.70;99.90;;;;;;467023;254;28014;-70
2023/10/01 07:09:56;;;;;;;7.30;5.20;;;10.70;99.90;;;;;;467081;254;28046;-71
2023/10/01 07:11:58;;;;;;;7.10;5.30;;;10.70;99.90;;;;;;467120;253;27982;-72
2023/10/01 07:13:59;;;;;;;10.30;5.03;;;10.80;99.90;;;;;;467150;253;28158;-71
2023/10/01 07:16:00;;;;;;;10.27;6.60;;;10.80;99.90;;;;;;467158;253;28829;-72
2023/10/01 07:18:13;;;;;;;9.50;5.30;;;10.80;99.90;;;;;;467145;253;28726;-71
2023/10/01 07:20:18;;;;;;;8.73;6.10;;;10.90;99.90;;;;;;466347;254;28481;-71
2023/10/01 07:22:07;;;;;;;11.07;5.70;;;10.90;99.90;;;;;;466065;254;28196;-73
2023/10/01 07:24:10;;;;;;;9.40;6.37;;;11.00;99.90;;;;;;466952;253;28439;-73
2023/10/01 07:26:12;;;;;;;8.53;5.47;;;11.20;99.90;;;;;;467056;254;28177;-71
2023/10/01 07:28:13;;;;;;;9.20;5.10;;;11.30;99.90;;;;;;466990;254;28016;-71
2023/10/01 07:30:15;;;;;;;6.57;4.93;;;11.40;99.90;;;;;;467145;253;28225;-70
2023/10/01 07:32:16;;;;;;;7.10;5.37;;;11.50;99.90;;;;;;467149;249;28137;-71
2023/10/01 07:34:17;;;;;;;7.93;5.70;;;11.50;99.90;;;;;;467171;253;28203;-71
2023/10/01 07:36:19;;;;;;;9.83;5.53;;;11.60;99.90;;;;;;467152;253;28193;-71
2023/10/01 07:38:20;;;;;;;12.00;6.73;;;11.70;99.90;;;;;;467130;250;28047;-70
2023/10/01 07:40:23;;;;;;;8.17;5.27;;;11.90;99.90;;;;;;467112;250;28166;-71
2023/10/01 07:42:22;;;;;;;7.40;5.00;;;11.90;99.90;;;;;;467076;253;28633;-72
2023/10/01 07:44:24;;;;;;;8.47;5.27;;;11.90;99.90;;;;;;467143;253;28755;-71
2023/10/01 07:46:25;;;;;;;10.30;5.63;;;12.00;99.90;;;;;;467128;254;28876;-71
2023/10/01 07:48:29;;;;;;;10.33;6.77;;;12.30;99.90;;;;;;467140;254;28192;-71
2023/10/01 07:50:27;;;;;;;13.20;7.50;;;12.50;99.90;;;;;;466776;254;28593;-71
2023/10/01 07:52:29;;;;;;;8.40;5.70;;;12.70;99.90;;;;;;467165;253;28438;-72
2023/10/01 07:54:30;;;;;;;10.63;6.67;;;12.90;99.90;;;;;;467154;253;28182;-71
2023/10/01 07:56:32;;;;;;;10.60;6.37;;;13.00;99.90;;;;;;467139;253;28606;-71
2023/10/01 07:58:48;;;;;;;13.73;7.03;;;13.20;99.90;;;;;;467081;253;28475;-71
2023/10/01 08:00:58;;;;;;;9.30;5.67;;;13.30;99.90;;;;;;467073;250;28304;-71
2023/10/01 08:05:10;;;;;;;7.83;5.20;;;13.20;99.90;;;;;;467136;254;28908;-71
2023/10/01 08:07:15;;;;;;;10.17;5.57;;;13.20;99.90;;;;;;467131;253;28359;-71
2023/10/01 08:09:13;;;;;;;10.03;6.17;;;13.30;99.90;;;;;;466911;254;29316;-71
2023/10/01 08:13:30;;;;;;;8.37;5.53;;;13.50;99.90;;;;;;452772;261;28480;-71
2023/10/01 08:15:50;;;;;;;10.00;5.60;;;13.60;99.90;;;;;;457848;254;28339;-71
2023/10/01 08:17:43;;;;;;;10.90;5.80;;;13.60;99.90;;;;;;466496;254;28935;-71
2023/10/01 08:19:49;;;;;;;10.10;6.07;;;13.50;99.90;;;;;;467066;249;28803;-74
2023/10/01 08:21:50;;;;;;;11.83;6.40;;;13.70;99.90;;;;;;466956;254;28290;-73
2023/10/01 08:23:48;;;;;;;12.43;6.43;;;13.90;99.90;;;;;;466865;254;28689;-71
2023/10/01 08:25:55;;;;;;;9.20;5.50;;;14.10;99.90;;;;;;467146;253;28335;-71
2023/10/01 08:30:19;;;;;;;11.83;5.13;;;14.00;99.90;;;;;;467161;249;28226;-71
2023/10/01 08:32:24;;;;;;;11.33;6.67;;;14.00;99.90;;;;;;467152;250;28275;-72
2023/10/01 08:34:27;;;;;;;10.87;6.40;;;14.10;99.90;;;;;;467136;253;28247;-72
2023/10/01 08:36:26;;;;;;;8.60;6.10;;;14.20;99.90;;;;;;467038;254;28234;-71
2023/10/01 08:38:36;;;;;;;7.17;5.00;;;14.20;99.90;;;;;;467153;253;28445;-72
2023/10/01 08:40:28;;;;;;;8.30;5.10;;;14.20;99.90;;;;;;466375;254;28343;-71
2023/10/01 08:42:30;;;;;;;10.60;6.50;;;14.30;99.90;;;;;;467150;254;28708;-71
2023/10/01 08:44:33;;;;;;;10.40;6.00;;;14.30;99.90;;;;;;467170;253;28771;-71
2023/10/01 08:46:32;;;;;;;10.30;6.00;;;14.40;99.90;;;;;;467058;254;28890;-71
2023/10/01 08:48:36;;;;;;;8.67;5.30;;;14.40;99.90;;;;;;467090;253;29177;-73
2023/10/01 08:50:36;;;;;;;9.37;5.60;;;14.40;99.90;;;;;;467004;254;28346;-71
2023/10/01 08:52:52;;;;;;;8.20;5.77;;;14.40;99.90;;;;;;467054;254;28622;-72
2023/10/01 08:54:37;;;;;;;7.80;4.97;;;14.40;99.90;;;;;;466099;254;28782;-72
2023/10/01 08:56:38;;;;;;;11.13;6.13;;;14.60;99.90;;;;;;467173;253;28297;-72
2023/10/01 08:58:49;;;;;;;11.50;6.27;;;14.80;99.90;;;;;;467170;253;28554;-72
2023/10/01 09:00:52;;;;;;;11.67;6.30;;;14.80;99.90;;;;;;467137;254;28537;-71
2023/10/01 09:02:51;;;;;;;9.13;5.57;;;14.80;99.90;;;;;;467058;253;28968;-71
2023/10/01 09:04:53;;;;;;;10.40;6.30;;;14.80;99.90;;;;;;467150;254;28552;-71
2023/10/01 09:06:59;;;;;;;11.00;5.67;;;14.80;99.90;;;;;;467123;254;28982;-72
2023/10/01 09:09:01;;;;;;;10.80;5.67;;;14.90;99.90;;;;;;467155;253;28504;-71
2023/10/01 09:11:10;;;;;;;12.40;5.83;;;15.10;99.90;;;;;;467160;249;28488;-71
2023/10/01 09:13:04;;;;;;;9.83;5.57;;;15.10;99.90;;;;;;466609;254;29454;-71
2023/10/01 09:15:05;;;;;;;10.67;6.93;;;15.10;99.90;;;;;;467127;254;29375;-71
2023/10/01 09:17:06;;;;;;;9.63;6.13;;;15.20;99.90;;;;;;467178;253;29065;-73
2023/10/01 09:21:28;;;;;;;10.10;5.90;;;15.30;99.90;;;;;;467125;254;28460;-72
2023/10/01 09:23:54;;;;;;;11.53;6.20;;;15.30;99.90;;;;;;467046;254;29344;-74
2023/10/01 09:25:30;;;;;;;10.90;5.83;;;15.40;99.90;;;;;;465765;254;30268;-72
2023/10/01 09:27:30;;;;;;;16.27;6.80;;;15.40;99.90;;;;;;467060;250;29530;-71
2023/10/01 09:29:32;;;;;;;9.80;6.37;;;15.60;99.90;;;;;;467073;253;28516;-71
2023/10/01 09:31:32;;;;;;;10.50;6.00;;;15.80;99.90;;;;;;467042;254;28959;-72
2023/10/01 09:33:35;;;;;;;10.40;5.70;;;15.70;99.90;;;;;;467100;254;28877;-74
2023/10/01 09:35:38;;;;;;;8.97;5.57;;;15.70;99.90;;;;;;467090;253;28879;-71
2023/10/01 09:37:52;;;;;;;10.40;5.83;;;15.80;99.90;;;;;;466855;254;28309;-71
2023/10/01 09:39:44;;;;;;;9.97;6.00;;;15.90;99.90;;;;;;466089;254;28844;-72
2023/10/01 09:41:45;;;;;;;11.23;5.70;;;15.80;99.90;;;;;;467127;253;28844;-72
2023/10/01 09:43:48;;;;;;;10.90;5.97;;;15.90;99.90;;;;;;467128;253;28999;-72
2023/10/01 09:45:48;;;;;;;11.53;6.00;;;15.90;99.90;;;;;;467060;253;28830;-71
2023/10/01 09:47:49;;;;;;;11.63;6.30;;;16.00;99.90;;;;;;467167;253;28957;-72
2023/10/01 09:49:51;;;;;;;9.73;5.40;;;16.00;99.90;;;;;;466903;254;28964;-72
2023/10/01 09:51:52;;;;;;;12.23;6.30;;;16.00;99.90;;;;;;467116;254;29365;-71
2023/10/01 09:53:53;;;;;;;12.30;6.50;;;16.10;99.90;;;;;;467130;249;29474;-72
2023/10/01 09:55:57;;;;;;;12.37;6.43;;;16.20;99.90;;;;;;467145;253;29085;-73
2023/10/01 09:57:55;;;;;;;11.30;6.30;;;16.20;99.90;;;;;;466874;254;28838;-72
2023/10/01 10:00:14;;;;;;;10.33;5.77;;;16.30;99.90;;;;;;467186;253;28885;-71
2023/10/01 10:02:02;;;;;;;11.07;6.10;;;16.30;99.90;;;;;;465969;254;29013;-71
2023/10/01 10:03:59;;;;;;;11.30;6.47;;;16.40;99.90;;;;;;466868;254;28986;-71
2023/10/01 10:06:06;;;;;;;13.50;5.77;;;16.50;99.90;;;;;;467176;253;28901;-72
2023/10/01 10:08:13;;;;;;;11.33;5.90;;;16.50;99.90;;;;;;466802;254;29312;-72
2023/10/01 10:10:04;;;;;;;12.93;6.17;;;16.60;99.90;;;;;;466409;254;28982;-72
2023/10/01 10:12:07;;;;;;;11.77;6.67;;;16.60;99.90;;;;;;467115;249;28933;-71
2023/10/01 10:14:05;;;;;;;11.13;5.67;;;16.60;99.90;;;;;;466958;254;28850;-72
2023/10/01 10:18:32;;;;;;;10.63;6.20;;;16.70;99.90;;;;;;467084;254;29254;-72
2023/10/01 10:20:29;;;;;;;10.97;5.97;;;16.80;99.90;;;;;;466707;254;29432;-72
2023/10/01 10:22:32;;;;;;;11.57;6.50;;;16.90;99.90;;;;;;467088;254;29347;-73
2023/10/01 10:24:30;;;;;;;14.43;6.60;;;16.70;99.90;;;;;;466964;253;28843;-72
2023/10/01 10:26:32;;;;;;;15.00;7.23;;;16.80;99.90;;;;;;467119;253;28953;-71
2023/10/01 10:28:32;;;;;;;11.40;6.27;;;16.90;99.90;;;;;;467134;250;28927;-71
2023/10/01 10:30:33;;;;;;;12.03;6.10;;;17.00;99.90;;;;;;467173;253;28833;-71
2023/10/01 10:32:44;;;;;;;10.40;6.70;;;17.00;99.90;;;;;;467159;254;28937;-72
2023/10/01 10:34:47;;;;;;;12.70;6.67;;;17.00;99.90;;;;;;467144;253;28973;-73
2023/10/01 10:36:55;;;;;;;11.53;6.30;;;16.90;99.90;;;;;;467011;254;28829;-71
2023/10/01 10:38:54;;;;;;;11.70;5.83;;;17.20;99.90;;;;;;466852;254;28974;-72
2023/10/01 10:41:05;;;;;;;15.77;6.43;;;17.40;99.90;;;;;;467136;253;28945;-74
2023/10/01 10:42:59;;;;;;;12.07;6.40;;;17.20;99.90;;;;;;466491;254;29319;-72
2023/10/01 10:45:19;;;;;;;11.57;6.40;;;17.20;99.90;;;;;;467130;253;28837;-72
2023/10/01 10:47:01;;;;;;;10.53;6.00;;;17.10;99.90;;;;;;465904;254;28894;-72
2023/10/01 10:49:03;;;;;;;10.30;5.90;;;17.30;99.90;;;;;;467127;253;28963;-72
2023/10/01 10:51:04;;;;;;;11.07;5.90;;;17.30;99.90;;;;;;467152;253;28909;-72
2023/10/01 10:53:14;;;;;;;15.23;7.33;;;17.40;99.90;;;;;;467128;250;28869;-72